Time;durP1;ratioP1;P1;durP2;ratioP2;P2;SDS_P1;SDS_P2;PMS_P1;PMS_P2;Temp;Humidity;BMP_temperature;BMP_pressure;BME280_temperature;BME280_humidity;BME280_pressure;Samples;Min_cycle;Max_cycle;Signal;HPM_P1;HPM_P2
2022/04/24 00:02:03;;;;;;;;;;;;;;;10.28;81.86;99208.19;4959444;28;858;-58
2022/04/24 00:04:29;;;;;;;;;;;;;;;10.31;81.28;99215.69;4959464;29;1948;-58
2022/04/24 00:06:56;;;;;;;;;;;;;;;10.28;81.10;99215.72;4959486;28;878;-58
2022/04/24 00:09:23;;;;;;;;;;;;;;;10.20;81.22;99223.31;4959352;28;966;-58
2022/04/24 00:11:50;;;;;;;;;;;;;;;10.06;81.54;99215.97;4959369;29;847;-58
2022/04/24 00:14:17;;;;;;;;;;;;;;;10.08;81.85;99224.63;4959426;28;870;-58
2022/04/24 00:16:46;;;;;;;;;;;;;;;10.26;81.02;99220.84;4959291;29;872;-58
2022/04/24 00:19:12;;;;;;;;;;;;;;;10.36;80.72;99229.03;4959265;28;922;-58
2022/04/24 00:21:39;;;;;;;;;;;;;;;10.38;80.38;99223.88;4959391;29;870;-58
2022/04/24 00:24:04;;;;;;;;;;;;;;;10.36;80.38;99229.03;4959193;28;1972;-58
2022/04/24 00:26:31;;;;;;;;;;;;;;;10.29;80.32;99223.63;4959337;28;1113;-58
2022/04/24 00:28:58;;;;;;;;;;;;;;;10.28;80.55;99224.00;4959207;28;843;-58
2022/04/24 00:31:24;;;;;;;;;;;;;;;10.55;79.26;99235.13;4956376;28;859;-58
2022/04/24 00:33:51;;;;;;;;;;;;;;;10.72;78.30;99225.78;4956232;29;807;-58
2022/04/24 00:36:18;;;;;;;;;;;;;;;10.66;78.30;99232.19;4956183;29;921;-58
2022/04/24 00:38:45;;;;;;;;;;;;;;;10.61;79.03;99227.94;4956169;29;796;-58
2022/04/24 00:41:11;;;;;;;;;;;;;;;10.61;78.54;99228.69;4956046;29;818;-58
2022/04/24 00:43:38;;;;;;;;;;;;;;;10.45;79.13;99236.81;4955985;29;1910;-58
2022/04/24 00:46:20;;;;;;;;;;;;;;;10.23;79.50;99228.00;4956056;29;795;-58
2022/04/24 00:48:47;;;;;;;;;;;;;;;10.20;79.93;99221.34;4956069;29;843;-58
2022/04/24 00:51:14;;;;;;;;;;;;;;;10.32;79.43;99227.53;4955902;28;858;-58
2022/04/24 00:53:40;;;;;;;;;;;;;;;10.29;79.54;99218.09;4955922;29;906;-58
2022/04/24 00:56:08;;;;;;;;;;;;;;;10.14;80.24;99228.50;4955867;29;832;-58
2022/04/24 00:58:34;;;;;;;;;;;;;;;10.27;79.82;99222.44;4956037;29;832;-58
2022/04/24 01:01:01;;;;;;;;;;;;;;;10.48;78.93;99227.72;4955689;29;839;-58
2022/04/24 01:03:27;;;;;;;;;;;;;;;10.36;79.30;99225.50;4955655;29;1886;-58
2022/04/24 01:05:55;;;;;;;;;;;;;;;10.14;79.98;99227.72;4955607;29;922;-58
2022/04/24 01:08:22;;;;;;;;;;;;;;;10.09;80.60;99223.44;4955636;29;828;-58
2022/04/24 01:10:48;;;;;;;;;;;;;;;10.11;81.03;99226.56;4955494;29;1044;-58
2022/04/24 01:13:15;;;;;;;;;;;;;;;10.09;80.67;99219.88;4955524;29;811;-58
2022/04/24 01:15:42;;;;;;;;;;;;;;;9.96;81.12;99225.97;4955575;29;804;-58
2022/04/24 01:18:08;;;;;;;;;;;;;;;9.83;81.92;99222.16;4955584;29;879;-58
2022/04/24 01:20:35;;;;;;;;;;;;;;;9.81;82.34;99221.78;4955470;29;796;-58
2022/04/24 01:23:02;;;;;;;;;;;;;;;9.90;82.22;99227.63;4955212;29;1946;-58
2022/04/24 01:25:28;;;;;;;;;;;;;;;10.03;81.46;99230.63;4955463;29;959;-58
2022/04/24 01:27:55;;;;;;;;;;;;;;;10.11;81.40;99226.56;4955062;29;1288;-58
2022/04/24 01:30:22;;;;;;;;;;;;;;;10.10;81.36;99230.53;4955139;29;978;-58
2022/04/24 01:32:48;;;;;;;;;;;;;;;10.24;80.84;99221.25;4955206;29;887;-58
2022/04/24 01:35:15;;;;;;;;;;;;;;;10.42;79.99;99232.13;4955215;29;902;-58
2022/04/24 01:37:45;;;;;;;;;;;;;;;10.38;79.41;99231.38;4955348;29;819;-58
2022/04/24 01:40:12;;;;;;;;;;;;;;;10.15;80.13;99229.28;4954933;29;861;-58
2022/04/24 01:42:38;;;;;;;;;;;;;;;9.98;80.71;99231.06;4954700;28;1910;-58
2022/04/24 01:45:12;;;;;;;;;;;;;;;9.92;81.58;99227.19;4954849;29;947;-58
2022/04/24 01:47:38;;;;;;;;;;;;;;;9.93;81.81;99228.75;4954896;28;843;-58
2022/04/24 01:50:05;;;;;;;;;;;;;;;9.91;81.83;99231.16;4954795;29;852;-58
2022/04/24 01:52:32;;;;;;;;;;;;;;;9.76;82.08;99234.06;4954814;28;841;-58
2022/04/24 01:54:59;;;;;;;;;;;;;;;9.73;82.65;99234.91;4954804;29;831;-58
2022/04/24 01:57:24;;;;;;;;;;;;;;;9.82;82.51;99237.94;4954760;29;846;-58
2022/04/24 01:59:51;;;;;;;;;;;;;;;9.74;82.31;99230.16;4954567;28;866;-57
2022/04/24 02:02:18;;;;;;;;;;;;;;;9.64;82.94;99242.06;4954632;29;851;-58
2022/04/24 02:04:44;;;;;;;;;;;;;;;9.56;83.41;99236.66;4954473;29;1950;-58
2022/04/24 02:07:11;;;;;;;;;;;;;;;9.51;84.33;99234.31;4954512;28;814;-58
2022/04/24 02:09:40;;;;;;;;;;;;;;;9.50;84.73;99235.50;4954714;29;816;-58
2022/04/24 02:12:07;;;;;;;;;;;;;;;9.42;84.89;99231.25;4954611;29;927;-57
2022/04/24 02:14:33;;;;;;;;;;;;;;;9.33;85.19;99239.22;4954442;29;808;-58
2022/04/24 02:17:01;;;;;;;;;;;;;;;9.18;85.38;99246.84;4954333;29;803;-58
2022/04/24 02:19:27;;;;;;;;;;;;;;;9.05;86.12;99249.31;4954335;29;859;-58
2022/04/24 02:21:53;;;;;;;;;;;;;;;9.04;87.22;99247.72;4954270;29;847;-58
2022/04/24 02:24:20;;;;;;;;;;;;;;;9.14;87.20;99246.09;4954200;29;1894;-58
2022/04/24 02:26:46;;;;;;;;;;;;;;;9.31;86.88;99245.13;4954287;29;1221;-58
2022/04/24 02:29:13;;;;;;;;;;;;;;;9.52;85.41;99249.69;4954201;29;922;-57
2022/04/24 02:31:40;;;;;;;;;;;;;;;9.73;84.66;99248.69;4954155;29;820;-57
2022/04/24 02:34:07;;;;;;;;;;;;;;;9.82;83.73;99259.25;4954445;29;867;-58
2022/04/24 02:36:34;;;;;;;;;;;;;;;9.69;83.89;99263.72;4953992;29;867;-58
2022/04/24 02:39:00;;;;;;;;;;;;;;;9.59;84.17;99268.91;4953979;29;812;-58
2022/04/24 02:41:27;;;;;;;;;;;;;;;9.60;84.11;99264.97;4953967;29;832;-58
2022/04/24 02:43:54;;;;;;;;;;;;;;;9.66;84.01;99261.78;4954022;29;1911;-58
2022/04/24 02:46:20;;;;;;;;;;;;;;;9.66;83.72;99267.28;4953917;29;903;-58
2022/04/24 02:48:46;;;;;;;;;;;;;;;9.56;84.35;99263.47;4953920;29;827;-58
2022/04/24 02:51:13;;;;;;;;;;;;;;;9.52;84.68;99274.50;4953883;29;815;-58
2022/04/24 02:53:40;;;;;;;;;;;;;;;9.41;84.58;99276.59;4953230;29;840;-58
2022/04/24 02:56:06;;;;;;;;;;;;;;;9.12;85.03;99274.03;4953620;29;969;-58
2022/04/24 02:58:33;;;;;;;;;;;;;;;8.82;86.12;99282.16;4953788;29;910;-58
2022/04/24 03:00:59;;;;;;;;;;;;;;;8.48;87.05;99244.94;4954018;29;866;-58
2022/04/24 03:03:26;;;;;;;;;;;;;;;8.69;87.74;99287.34;4953618;28;1890;-58
2022/04/24 03:05:53;;;;;;;;;;;;;;;8.63;87.99;99281.44;4953903;29;803;-58
2022/04/24 03:08:20;;;;;;;;;;;;;;;8.58;88.59;99299.19;4953845;29;862;-58
2022/04/24 03:10:46;;;;;;;;;;;;;;;8.73;90.07;99290.84;4953678;29;899;-57
2022/04/24 03:13:13;;;;;;;;;;;;;;;9.02;88.30;99294.19;4953886;29;870;-58
2022/04/24 03:15:39;;;;;;;;;;;;;;;9.19;87.35;99293.28;4954353;29;807;-58
2022/04/24 03:18:06;;;;;;;;;;;;;;;9.20;86.99;99297.63;4953944;29;851;-58
2022/04/24 03:20:33;;;;;;;;;;;;;;;9.20;87.08;99305.13;4954308;29;776;-58
2022/04/24 03:23:00;;;;;;;;;;;;;;;9.13;87.26;99303.19;4936647;29;1882;-58
2022/04/24 03:25:26;;;;;;;;;;;;;;;9.22;87.73;99307.44;4953712;29;1006;-58
2022/04/24 03:27:53;;;;;;;;;;;;;;;9.24;87.46;99305.88;4953338;29;1275;-58
2022/04/24 03:30:21;;;;;;;;;;;;;;;9.32;87.38;99310.13;4953397;29;824;-58
2022/04/24 03:32:48;;;;;;;;;;;;;;;9.45;86.82;99315.16;4953724;29;800;-58
2022/04/24 03:35:14;;;;;;;;;;;;;;;9.47;86.70;99315.53;4953435;29;866;-58
2022/04/24 03:37:43;;;;;;;;;;;;;;;9.55;86.28;99323.34;4953347;29;827;-58
2022/04/24 03:40:10;;;;;;;;;;;;;;;9.79;85.57;99323.53;4953959;29;867;-58
2022/04/24 03:42:36;;;;;;;;;;;;;;;9.92;84.99;99323.81;4953451;29;1956;-58
2022/04/24 03:45:06;;;;;;;;;;;;;;;9.97;84.57;99328.91;4953323;29;832;-58
2022/04/24 03:47:32;;;;;;;;;;;;;;;9.92;84.72;99323.81;4953459;29;895;-58
2022/04/24 03:49:59;;;;;;;;;;;;;;;9.96;84.44;99330.88;4953478;29;878;-58
2022/04/24 03:52:26;;;;;;;;;;;;;;;10.11;83.60;99331.47;4953412;29;800;-58
2022/04/24 03:54:52;;;;;;;;;;;;;;;10.04;82.93;99300.41;4953426;29;819;-58
2022/04/24 03:57:19;;;;;;;;;;;;;;;10.34;82.82;99335.63;4953313;29;938;-57
2022/04/24 03:59:46;;;;;;;;;;;;;;;10.47;82.38;99333.09;4953312;29;871;-58
2022/04/24 04:02:13;;;;;;;;;;;;;;;10.59;82.08;99336.09;4953311;28;812;-58
2022/04/24 04:04:39;;;;;;;;;;;;;;;10.69;81.59;99342.72;4953242;28;1934;-58
2022/04/24 04:07:06;;;;;;;;;;;;;;;10.79;81.13;99341.75;4957087;29;807;-58
2022/04/24 04:09:33;;;;;;;;;;;;;;;10.90;81.03;99346.38;4957313;29;902;-58
2022/04/24 04:12:00;;;;;;;;;;;;;;;10.98;80.42;99351.38;4956693;29;851;-58
2022/04/24 04:14:26;;;;;;;;;;;;;;;11.03;80.21;99344.59;4956851;29;816;-57
2022/04/24 04:16:54;;;;;;;;;;;;;;;11.09;80.21;99350.47;4956528;29;847;-58
2022/04/24 04:19:21;;;;;;;;;;;;;;;11.11;79.77;99351.59;4957081;29;892;-58
2022/04/24 04:21:48;;;;;;;;;;;;;;;11.17;79.95;99352.72;4956746;29;843;-57
2022/04/24 04:24:15;;;;;;;;;;;;;;;11.28;79.30;99355.31;4956494;29;1969;-58
2022/04/24 04:26:41;;;;;;;;;;;;;;;11.41;78.80;99355.50;4956588;29;1207;-57
2022/04/24 04:29:08;;;;;;;;;;;;;;;11.58;78.47;99367.50;4956333;29;894;-58
2022/04/24 04:31:34;;;;;;;;;;;;;;;11.86;78.70;99369.03;4956576;29;855;-58
2022/04/24 04:34:00;;;;;;;;;;;;;;;12.16;77.88;99373.69;4956301;29;839;-58
2022/04/24 04:36:27;;;;;;;;;;;;;;;12.32;77.25;99378.53;4956165;28;792;-58
2022/04/24 04:38:54;;;;;;;;;;;;;;;12.37;76.80;99372.47;4955970;29;915;-58
2022/04/24 04:41:20;;;;;;;;;;;;;;;12.42;76.93;99383.09;4956361;29;887;-57
2022/04/24 04:43:47;;;;;;;;;;;;;;;12.46;77.21;99388.56;4955879;29;1974;-58
2022/04/24 04:46:14;;;;;;;;;;;;;;;12.54;77.50;99386.44;4956090;29;811;-58
2022/04/24 04:48:40;;;;;;;;;;;;;;;12.73;76.71;99391.19;4955906;29;867;-58
2022/04/24 04:51:07;;;;;;;;;;;;;;;12.91;76.66;99392.81;4955862;29;856;-58
2022/04/24 04:53:34;;;;;;;;;;;;;;;13.08;76.30;99394.44;4955852;29;799;-58
2022/04/24 04:56:02;;;;;;;;;;;;;;;13.19;75.26;99394.22;4955823;29;930;-58
2022/04/24 04:58:29;;;;;;;;;;;;;;;13.30;75.50;99397.56;4955782;29;898;-58
2022/04/24 05:00:55;;;;;;;;;;;;;;;13.51;75.07;99403.84;4955772;29;893;-58
2022/04/24 05:03:22;;;;;;;;;;;;;;;13.79;74.75;99403.16;4955624;29;1895;-58
2022/04/24 05:05:49;;;;;;;;;;;;;;;14.07;73.90;99406.44;4955595;29;899;-58
2022/04/24 05:08:15;;;;;;;;;;;;;;;14.36;73.09;99400.09;4955656;29;885;-58
2022/04/24 05:10:42;;;;;;;;;;;;;;;15.02;71.42;99400.69;4955626;28;986;-59
2022/04/24 05:13:10;;;;;;;;;;;;;;;16.05;69.06;99393.13;4955652;29;831;-59
2022/04/24 05:15:35;;;;;;;;;;;;;;;17.08;65.96;99394.22;4955357;29;907;-58
2022/04/24 05:18:02;;;;;;;;;;;;;;;17.51;62.23;99400.16;4955008;28;808;-58
2022/04/24 05:20:29;;;;;;;;;;;;;;;17.46;63.15;99397.97;4955282;29;926;-59
2022/04/24 05:23:16;;;;;;;;;;;;;;;17.54;63.09;99393.66;4955364;29;1886;-58
2022/04/24 05:25:42;;;;;;;;;;;;;;;18.15;61.60;99402.34;4955468;29;908;-58
2022/04/24 05:28:08;;;;;;;;;;;;;;;19.08;58.77;99389.13;4955114;29;1388;-59
2022/04/24 05:30:35;;;;;;;;;;;;;;;20.07;55.33;99399.56;4955354;29;800;-59
2022/04/24 05:33:02;;;;;;;;;;;;;;;20.43;53.35;99394.16;4955173;29;847;-58
2022/04/24 05:35:28;;;;;;;;;;;;;;;20.60;52.24;99400.91;4955151;29;841;-58
2022/04/24 05:37:55;;;;;;;;;;;;;;;20.74;52.68;99393.75;4955041;29;839;-58
2022/04/24 05:40:21;;;;;;;;;;;;;;;20.57;53.46;99404.66;4955113;29;852;-58
2022/04/24 05:42:53;;;;;;;;;;;;;;;20.51;54.06;99415.00;4954905;29;1915;-58
2022/04/24 05:45:22;;;;;;;;;;;;;;;20.89;52.55;99405.78;4954984;29;788;-58
2022/04/24 05:47:49;;;;;;;;;;;;;;;21.44;50.29;99407.22;4954835;29;922;-59
2022/04/24 05:50:16;;;;;;;;;;;;;;;22.20;49.28;99406.50;4954710;28;900;-59
2022/04/24 05:52:43;;;;;;;;;;;;;;;22.94;47.73;99416.59;4954821;29;951;-58
2022/04/24 05:55:10;;;;;;;;;;;;;;;23.74;45.31;99410.31;4937522;29;828;-58
2022/04/24 05:57:38;;;;;;;;;;;;;;;24.34;44.44;99408.34;4954762;29;950;-58
2022/04/24 06:00:06;;;;;;;;;;;;;;;24.74;43.21;99405.66;4954666;29;867;-59
2022/04/24 06:02:33;;;;;;;;;;;;;;;24.97;42.07;99407.25;4954676;29;831;-59
2022/04/24 06:04:59;;;;;;;;;;;;;;;25.38;41.34;99406.78;4954456;28;2021;-58
2022/04/24 06:07:25;;;;;;;;;;;;;;;25.97;40.23;99412.63;4954548;29;863;-59
2022/04/24 06:09:52;;;;;;;;;;;;;;;26.57;39.01;99418.59;4954516;29;839;-59
2022/04/24 06:12:18;;;;;;;;;;;;;;;26.96;36.67;99417.59;4954365;29;1059;-59
2022/04/24 06:14:45;;;;;;;;;;;;;;;27.17;35.98;99417.19;4954399;29;918;-59
2022/04/24 06:17:11;;;;;;;;;;;;;;;27.79;34.73;99417.41;4954328;29;1047;-59
2022/04/24 06:19:38;;;;;;;;;;;;;;;28.29;33.15;99407.59;4954303;29;904;-59
2022/04/24 06:22:05;;;;;;;;;;;;;;;28.64;33.30;99408.72;4954231;29;891;-59
2022/04/24 06:24:31;;;;;;;;;;;;;;;29.41;32.61;99418.66;4954228;29;1895;-59
2022/04/24 06:26:58;;;;;;;;;;;;;;;29.93;31.34;99407.91;4954072;28;1165;-59
2022/04/24 06:29:25;;;;;;;;;;;;;;;30.08;30.91;99407.38;4953292;28;835;-59
2022/04/24 06:31:51;;;;;;;;;;;;;;;30.06;30.42;99416.44;4954091;29;899;-59
2022/04/24 06:34:18;;;;;;;;;;;;;;;29.64;30.60;99413.34;4954044;29;1087;-59
2022/04/24 06:36:44;;;;;;;;;;;;;;;29.49;31.68;99413.88;4953914;29;855;-59
2022/04/24 06:39:12;;;;;;;;;;;;;;;30.04;31.47;99412.63;4954009;28;812;-59
2022/04/24 06:41:39;;;;;;;;;;;;;;;29.70;32.05;99414.06;4954150;29;828;-59
2022/04/24 06:44:05;;;;;;;;;;;;;;;29.32;31.79;99421.94;4953762;29;1972;-59
2022/04/24 06:46:32;;;;;;;;;;;;;;;29.17;30.87;99408.22;4953907;29;863;-59
2022/04/24 06:48:58;;;;;;;;;;;;;;;29.11;30.57;99411.13;4953819;29;829;-59
2022/04/24 06:51:24;;;;;;;;;;;;;;;29.69;30.91;99406.00;4954025;29;812;-59
2022/04/24 06:53:51;;;;;;;;;;;;;;;29.78;30.36;99414.16;4953815;29;891;-59
2022/04/24 06:56:17;;;;;;;;;;;;;;;29.71;30.78;99411.97;4954054;28;903;-59
2022/04/24 06:58:44;;;;;;;;;;;;;;;29.91;31.01;99404.84;4954069;29;795;-59
2022/04/24 07:01:11;;;;;;;;;;;;;;;30.20;30.96;99402.22;4953779;29;874;-59
2022/04/24 07:03:37;;;;;;;;;;;;;;;30.38;30.08;99407.03;4953547;29;1955;-59
2022/04/24 07:06:04;;;;;;;;;;;;;;;30.44;29.20;99407.69;4953616;29;871;-59
2022/04/24 07:08:32;;;;;;;;;;;;;;;30.34;29.99;99406.59;4953616;29;999;-59
2022/04/24 07:10:59;;;;;;;;;;;;;;;30.01;31.43;99405.94;4953567;28;1066;-59
2022/04/24 07:13:26;;;;;;;;;;;;;;;29.80;30.19;99408.69;4953561;29;906;-59
2022/04/24 07:15:52;;;;;;;;;;;;;;;29.39;31.10;99409.91;4953629;29;871;-59
2022/04/24 07:18:19;;;;;;;;;;;;;;;29.11;31.52;99405.44;4953490;28;965;-59
2022/04/24 07:20:46;;;;;;;;;;;;;;;29.26;32.60;99404.94;4953422;29;904;-59
2022/04/24 07:23:13;;;;;;;;;;;;;;;29.23;34.02;99406.03;4953484;29;1955;-59
2022/04/24 07:25:43;;;;;;;;;;;;;;;29.28;32.77;99410.09;4953502;28;1472;-59
2022/04/24 07:28:13;;;;;;;;;;;;;;;29.16;32.29;99403.81;4953178;29;1229;-60
2022/04/24 07:30:39;;;;;;;;;;;;;;;28.85;31.40;99408.16;4953296;29;939;-59
2022/04/24 07:33:06;;;;;;;;;;;;;;;28.63;33.50;99407.16;4936184;29;1614;-59
2022/04/24 07:35:33;;;;;;;;;;;;;;;29.06;33.08;99411.97;4953146;29;935;-59
2022/04/24 07:38:01;;;;;;;;;;;;;;;29.48;31.97;99412.31;4953393;29;796;-60
2022/04/24 07:40:30;;;;;;;;;;;;;;;29.22;31.05;99415.13;4937178;29;1673;-59
2022/04/24 07:42:58;;;;;;;;;;;;;;;28.83;31.50;99407.94;4957274;29;1950;-59
2022/04/24 07:45:31;;;;;;;;;;;;;;;28.46;32.84;99415.13;4957113;29;882;-60
2022/04/24 07:47:58;;;;;;;;;;;;;;;28.35;32.73;99416.03;4957356;29;820;-59
2022/04/24 07:50:28;;;;;;;;;;;;;;;28.70;33.74;99412.25;4957351;29;875;-59
2022/04/24 07:52:55;;;;;;;;;;;;;;;29.10;32.51;99408.81;4957353;29;819;-60
2022/04/24 07:55:23;;;;;;;;;;;;;;;29.12;31.38;99403.34;4956819;28;899;-59
2022/04/24 07:57:53;;;;;;;;;;;;;;;28.89;31.04;99409.38;4956827;29;963;-59
2022/04/24 08:00:21;;;;;;;;;;;;;;;28.70;31.50;99409.41;4957086;29;835;-59
2022/04/24 08:02:49;;;;;;;;;;;;;;;28.53;32.60;99406.03;4956739;29;1955;-59
2022/04/24 08:05:20;;;;;;;;;;;;;;;28.73;32.08;99403.94;4956799;29;815;-59
2022/04/24 08:07:48;;;;;;;;;;;;;;;28.53;32.33;99406.03;4956634;28;847;-59
2022/04/24 08:10:15;;;;;;;;;;;;;;;28.56;33.10;99407.78;4956631;29;966;-59
2022/04/24 08:12:40;;;;;;;;;;;;;;;28.13;32.30;99399.28;4956566;29;1078;-59
2022/04/24 08:15:08;;;;;;;;;;;;;;;28.49;32.61;99402.72;4956643;29;812;-59
2022/04/24 08:17:35;;;;;;;;;;;;;;;28.70;33.18;99394.41;4939360;29;895;-59
2022/04/24 08:20:02;;;;;;;;;;;;;;;28.61;32.88;99394.78;4939512;29;930;-59
2022/04/24 08:22:38;;;;;;;;;;;;;;;28.39;34.74;99393.00;4956523;29;911;-59
2022/04/24 08:25:06;;;;;;;;;;;;;;;28.83;34.04;99385.94;4956451;29;1886;-59
2022/04/24 08:27:34;;;;;;;;;;;;;;;29.13;32.95;99390.69;4956177;29;1347;-59
2022/04/24 08:30:03;;;;;;;;;;;;;;;28.68;33.01;99394.94;4956238;29;915;-59
2022/04/24 08:32:31;;;;;;;;;;;;;;;28.40;32.72;99388.84;4956275;29;1106;-59
2022/04/24 08:34:57;;;;;;;;;;;;;;;28.06;32.99;99390.06;4956009;28;947;-59
2022/04/24 08:37:25;;;;;;;;;;;;;;;28.28;34.30;99389.00;4956284;29;823;-59
2022/04/24 08:39:51;;;;;;;;;;;;;;;28.81;33.82;99385.72;4938951;29;1501;-59
2022/04/24 08:42:21;;;;;;;;;;;;;;;28.60;32.75;99387.59;4956114;29;969;-59
2022/04/24 08:44:48;;;;;;;;;;;;;;;28.64;33.53;99382.34;4955957;29;1979;-59
2022/04/24 08:47:16;;;;;;;;;;;;;;;28.77;32.32;99381.66;4956002;29;832;-59
2022/04/24 08:49:43;;;;;;;;;;;;;;;28.35;31.82;99381.94;4956071;28;914;-58
2022/04/24 08:52:10;;;;;;;;;;;;;;;28.32;31.90;99385.84;4954894;28;847;-59
2022/04/24 08:54:41;;;;;;;;;;;;;;;28.56;33.03;99381.44;4938820;29;815;-59
2022/04/24 08:57:10;;;;;;;;;;;;;;;28.50;32.22;99387.19;4955776;29;907;-59
2022/04/24 08:59:37;;;;;;;;;;;;;;;28.33;32.25;99390.22;4955899;29;874;-59
2022/04/24 09:02:05;;;;;;;;;;;;;;;28.09;32.41;99371.94;4956069;29;875;-59
2022/04/24 09:04:34;;;;;;;;;;;;;;;28.29;32.71;99379.19;4938516;29;1886;-59
2022/04/24 09:07:02;;;;;;;;;;;;;;;28.13;31.78;99382.22;4955690;29;835;-59
2022/04/24 09:09:38;;;;;;;;;;;;;;;27.86;31.98;99379.16;4955910;28;890;-59
2022/04/24 09:12:12;;;;;;;;;;;;;;;27.92;33.67;99374.19;4955546;29;951;-59
2022/04/24 09:14:39;;;;;;;;;;;;;;;27.53;33.42;99371.78;4955554;29;874;-59
2022/04/24 09:17:07;;;;;;;;;;;;;;;27.16;31.67;99365.38;4955619;29;874;-59
2022/04/24 09:19:36;;;;;;;;;;;;;;;26.93;33.77;99364.78;4955449;29;855;-59
2022/04/24 09:22:04;;;;;;;;;;;;;;;26.85;34.28;99366.63;4955515;29;846;-59
2022/04/24 09:24:52;;;;;;;;;;;;;;;26.95;35.49;99365.00;4938059;29;1903;-58
2022/04/24 09:27:36;;;;;;;;;;;;;;;26.71;34.85;99357.19;4955041;29;1260;-59
2022/04/24 09:30:04;;;;;;;;;;;;;;;26.43;35.69;99351.66;4955282;29;839;-59
2022/04/24 09:32:32;;;;;;;;;;;;;;;26.45;36.00;99346.25;4955188;29;875;-59
2022/04/24 09:34:58;;;;;;;;;;;;;;;26.44;37.20;99348.31;4955068;29;1184;-59
2022/04/24 09:37:25;;;;;;;;;;;;;;;26.37;37.43;99350.91;4955217;29;855;-59
2022/04/24 09:39:52;;;;;;;;;;;;;;;26.35;38.39;99345.00;4955048;28;836;-59
2022/04/24 09:42:20;;;;;;;;;;;;;;;26.22;37.38;99337.09;4954951;29;929;-58
2022/04/24 09:44:47;;;;;;;;;;;;;;;26.00;37.63;99337.97;4954814;29;1966;-59
2022/04/24 09:47:16;;;;;;;;;;;;;;;25.95;39.01;99338.78;4955062;29;1005;-59
2022/04/24 09:49:45;;;;;;;;;;;;;;;25.81;37.28;99337.75;4954919;29;843;-59
2022/04/24 09:52:13;;;;;;;;;;;;;;;25.84;38.81;99337.50;4955178;29;811;-59
2022/04/24 09:54:44;;;;;;;;;;;;;;;25.74;38.69;99327.75;4955563;29;780;-59
2022/04/24 09:57:12;;;;;;;;;;;;;;;25.57;37.29;99335.50;4954693;29;928;-59
2022/04/24 10:25:54;;;;;;;;;;;;;;;26.15;36.89;99312.94;5980714;23;1685;-59
2022/04/24 10:28:21;;;;;;;;;;;;;;;25.62;37.06;99309.25;4954292;29;811;-56
2022/04/24 10:30:59;;;;;;;;;;;;;;;25.41;38.73;99311.63;4954179;28;933;-57
2022/04/24 10:33:28;;;;;;;;;;;;;;;25.38;38.88;99312.66;4954157;28;807;-57
2022/04/24 10:36:02;;;;;;;;;;;;;;;25.47;37.81;99312.38;4954386;28;845;-57
2022/04/24 10:38:29;;;;;;;;;;;;;;;25.75;38.61;99315.13;4954199;28;933;-57
2022/04/24 10:40:57;;;;;;;;;;;;;;;26.09;38.67;99309.34;4954157;28;823;-57
2022/04/24 10:43:25;;;;;;;;;;;;;;;26.07;38.86;99303.44;4953939;28;1969;-57
2022/04/24 10:45:52;;;;;;;;;;;;;;;26.27;38.32;99311.59;4953989;28;882;-57
2022/04/24 10:48:19;;;;;;;;;;;;;;;26.32;36.66;99312.84;4954001;28;886;-57
2022/04/24 10:50:53;;;;;;;;;;;;;;;26.04;36.30;99301.66;4953969;28;862;-57
2022/04/24 10:53:20;;;;;;;;;;;;;;;26.03;37.80;99315.06;4953917;28;874;-57
2022/04/24 10:55:47;;;;;;;;;;;;;;;26.06;37.52;99304.75;4953973;28;891;-57
2022/04/24 10:58:24;;;;;;;;;;;;;;;26.45;37.93;99298.06;4953909;28;909;-57
2022/04/24 11:00:51;;;;;;;;;;;;;;;26.66;35.49;99301.31;4953803;28;921;-57
2022/04/24 11:03:19;;;;;;;;;;;;;;;26.58;37.42;99300.34;4954356;28;1886;-57
2022/04/24 11:05:49;;;;;;;;;;;;;;;26.58;36.08;99289.75;4953850;28;887;-57
2022/04/24 11:08:21;;;;;;;;;;;;;;;26.42;38.25;99290.66;4953635;28;950;-57
2022/04/24 11:10:49;;;;;;;;;;;;;;;26.62;35.67;99284.59;4953844;28;949;-57
2022/04/24 11:13:17;;;;;;;;;;;;;;;26.39;36.64;99281.09;4952373;29;1277;-57
2022/04/24 11:15:45;;;;;;;;;;;;;;;26.49;36.52;99281.56;4953191;28;898;-57
2022/04/24 11:18:24;;;;;;;;;;;;;;;26.50;35.41;99274.63;4953488;28;903;-57
2022/04/24 11:20:53;;;;;;;;;;;;;;;26.60;37.95;99277.91;4953588;28;866;-57
2022/04/24 11:23:20;;;;;;;;;;;;;;;26.79;36.31;99272.34;4953412;28;1886;-57
2022/04/24 11:25:47;;;;;;;;;;;;;;;27.01;34.95;99274.22;4953547;28;919;-57
2022/04/24 11:28:15;;;;;;;;;;;;;;;27.11;36.35;99275.41;4991563;28;1237;-57
2022/04/24 11:30:42;;;;;;;;;;;;;;;27.16;34.72;99265.31;4992041;28;920;-57
2022/04/24 11:33:09;;;;;;;;;;;;;;;27.11;35.07;99271.81;4992034;28;922;-57
2022/04/24 11:35:36;;;;;;;;;;;;;;;27.20;35.80;99265.78;4974721;28;898;-57
2022/04/24 11:38:07;;;;;;;;;;;;;;;27.22;35.63;99249.78;4992089;28;878;-57
2022/04/24 11:40:38;;;;;;;;;;;;;;;27.04;36.94;99271.09;4992082;28;811;-57
2022/04/24 11:43:04;;;;;;;;;;;;;;;27.22;36.24;99260.38;4991837;28;1934;-57
2022/04/24 11:51:18;;;;;;;;;;;;;;;27.00;36.02;99258.50;4992335;28;668;-57
2022/04/24 11:53:45;;;;;;;;;;;;;;;26.87;34.99;99256.31;4991975;28;888;-57
2022/04/24 11:56:12;;;;;;;;;;;;;;;27.05;35.44;99249.16;4974588;28;970;-58
2022/04/24 11:58:41;;;;;;;;;;;;;;;27.17;34.39;99247.75;4992031;28;561;-57
2022/04/24 12:01:13;;;;;;;;;;;;;;;27.29;34.54;99239.94;4991764;28;852;-57
2022/04/24 12:03:42;;;;;;;;;;;;;;;27.19;34.60;99238.72;4991685;28;1894;-57
2022/04/24 12:06:11;;;;;;;;;;;;;;;27.17;36.15;99235.66;4991743;28;929;-57
2022/04/24 12:08:49;;;;;;;;;;;;;;;27.39;33.46;99235.41;4958420;28;913;-57
2022/04/24 12:11:26;;;;;;;;;;;;;;;27.24;31.98;99232.25;4991809;28;855;-58
2022/04/24 12:14:10;;;;;;;;;;;;;;;27.14;32.80;99231.03;4991767;28;874;-58
2022/04/24 12:16:45;;;;;;;;;;;;;;;27.20;34.01;99228.91;4991675;28;910;-57
2022/04/24 12:19:17;;;;;;;;;;;;;;;27.17;33.81;99233.59;4991694;28;819;-57
2022/04/24 12:21:48;;;;;;;;;;;;;;;27.17;34.19;99227.16;4992058;28;878;-58
2022/04/24 12:24:14;;;;;;;;;;;;;;;27.33;33.62;99229.03;4991598;28;1882;-58
2022/04/24 12:26:53;;;;;;;;;;;;;;;27.47;34.86;99221.41;4992915;28;1179;-58
2022/04/24 12:29:20;;;;;;;;;;;;;;;27.67;34.39;99223.75;4977815;28;901;-58
2022/04/24 12:31:48;;;;;;;;;;;;;;;27.89;34.28;99219.88;4995158;28;799;-58
2022/04/24 12:34:14;;;;;;;;;;;;;;;28.15;34.62;99220.53;4994956;28;898;-58
2022/04/24 12:36:52;;;;;;;;;;;;;;;28.34;35.21;99215.59;4995035;28;897;-57
2022/04/24 12:39:25;;;;;;;;;;;;;;;28.45;33.97;99215.41;4994892;28;952;-58
2022/04/24 12:41:52;;;;;;;;;;;;;;;28.55;32.58;99224.34;4995009;28;869;-57
2022/04/24 12:44:19;;;;;;;;;;;;;;;28.36;33.24;99223.56;4977484;28;1970;-57
2022/04/24 12:46:49;;;;;;;;;;;;;;;28.26;34.92;99223.22;4994905;28;827;-57
2022/04/24 12:49:26;;;;;;;;;;;;;;;28.07;32.33;99217.56;4977372;28;1528;-57
2022/04/24 12:51:52;;;;;;;;;;;;;;;28.08;35.84;99216.25;4977546;28;810;-57
2022/04/24 12:54:19;;;;;;;;;;;;;;;28.11;34.38;99212.31;4994710;28;853;-57
2022/04/24 12:56:45;;;;;;;;;;;;;;;27.83;33.78;99213.47;4994676;28;827;-57
2022/04/24 12:59:12;;;;;;;;;;;;;;;27.48;33.60;99220.09;4994678;28;838;-57
2022/04/24 13:01:42;;;;;;;;;;;;;;;27.17;34.29;99222.25;4994626;28;1006;-58
2022/04/24 13:04:08;;;;;;;;;;;;;;;27.08;35.91;99222.59;4994339;28;1890;-57
2022/04/24 13:06:36;;;;;;;;;;;;;;;26.93;35.26;99220.16;4994540;28;867;-58
2022/04/24 13:09:03;;;;;;;;;;;;;;;26.80;34.48;99220.03;4994335;28;937;-57
2022/04/24 13:11:30;;;;;;;;;;;;;;;26.62;34.11;99230.75;4994279;28;843;-58
2022/04/24 13:13:57;;;;;;;;;;;;;;;26.49;34.58;99224.91;4994369;28;835;-57
2022/04/24 13:19:11;;;;;;;;;;;;;;;26.03;33.89;99203.84;4994636;28;685;-57
2022/04/24 13:21:38;;;;;;;;;;;;;;;26.32;35.19;99235.59;4994207;28;894;-57
2022/04/24 13:24:05;;;;;;;;;;;;;;;26.47;34.18;99233.16;4993933;28;1886;-57
2022/04/24 13:26:32;;;;;;;;;;;;;;;26.51;34.47;99230.06;4993865;28;1224;-57
2022/04/24 13:28:59;;;;;;;;;;;;;;;26.39;32.69;99235.78;4994135;28;823;-58
2022/04/24 13:31:25;;;;;;;;;;;;;;;26.21;32.75;99225.88;4993940;28;918;-57
2022/04/24 13:33:52;;;;;;;;;;;;;;;25.99;33.23;99226.78;4994017;28;858;-57
2022/04/24 13:36:19;;;;;;;;;;;;;;;26.03;33.89;99226.50;4993793;28;839;-57
2022/04/24 13:38:49;;;;;;;;;;;;;;;26.07;33.82;99227.00;4993582;28;827;-57
2022/04/24 13:41:16;;;;;;;;;;;;;;;25.97;34.27;99228.63;4993681;28;918;-57
2022/04/24 13:43:43;;;;;;;;;;;;;;;25.92;34.33;99224.50;4994072;28;1979;-57
2022/04/24 13:46:10;;;;;;;;;;;;;;;25.67;33.67;99217.94;4993748;28;850;-57